createdAt,value
2017-07-04T00:02:23.760Z,3.30
2017-07-04T00:04:50.324Z,3.20
2017-07-04T00:07:16.936Z,4.03
2017-07-04T00:09:43.495Z,3.83
2017-07-04T00:12:10.041Z,3.57
2017-07-04T00:14:36.571Z,3.07
2017-07-04T00:17:03.139Z,3.23
2017-07-04T00:19:29.672Z,3.23
2017-07-04T00:21:56.229Z,3.40
2017-07-04T00:24:22.740Z,4.20
2017-07-04T00:26:49.296Z,2.77
2017-07-04T00:29:15.820Z,2.97
2017-07-04T00:31:42.397Z,3.57
2017-07-04T00:34:09.148Z,3.60
2017-07-04T00:36:35.685Z,3.03
2017-07-04T00:39:03.730Z,4.00
2017-07-04T00:41:30.027Z,3.17
2017-07-04T00:43:56.569Z,4.57
2017-07-04T00:46:23.091Z,3.17
2017-07-04T00:48:49.636Z,3.33
2017-07-04T00:51:23.716Z,4.40
2017-07-04T00:53:50.032Z,4.43
2017-07-04T00:56:17.135Z,4.60
2017-07-04T00:58:43.444Z,3.80
2017-07-04T01:01:09.793Z,4.57
2017-07-04T01:03:36.104Z,4.00
2017-07-04T01:06:02.432Z,4.47
2017-07-04T01:08:28.744Z,4.60
2017-07-04T01:10:55.073Z,4.30
2017-07-04T01:13:21.640Z,4.27
2017-07-04T01:15:47.960Z,4.50
2017-07-04T01:18:14.289Z,4.10
2017-07-04T01:20:40.604Z,4.03
2017-07-04T01:23:06.941Z,4.23
2017-07-04T01:25:33.259Z,4.73
2017-07-04T01:27:59.590Z,4.83
2017-07-04T01:30:25.940Z,4.57
2017-07-04T01:32:52.291Z,3.80
2017-07-04T01:35:19.388Z,4.97
2017-07-04T01:37:45.731Z,4.53
2017-07-04T01:40:12.069Z,4.17
2017-07-04T01:42:39.020Z,4.17
2017-07-04T01:45:05.409Z,4.87
2017-07-04T01:47:31.780Z,4.37
2017-07-04T01:49:58.130Z,4.30
2017-07-04T01:52:24.528Z,4.03
2017-07-04T01:54:50.913Z,4.33
2017-07-04T01:57:17.419Z,5.10
2017-07-04T01:59:43.740Z,4.00
2017-07-04T02:02:10.049Z,5.13
2017-07-04T02:04:36.400Z,6.27
2017-07-04T02:07:02.714Z,5.07
2017-07-04T02:09:29.134Z,5.67
2017-07-04T02:11:56.065Z,6.60
2017-07-04T02:14:22.810Z,5.57
2017-07-04T02:16:49.124Z,5.90
2017-07-04T02:19:15.424Z,5.70
2017-07-04T02:21:41.736Z,6.60
2017-07-04T02:24:08.050Z,6.50
2017-07-04T02:26:34.357Z,7.03
2017-07-04T02:29:00.674Z,6.30
2017-07-04T02:31:26.985Z,6.87
2017-07-04T02:33:53.299Z,6.17
2017-07-04T02:36:19.820Z,6.00
2017-07-04T02:38:46.370Z,5.80
2017-07-04T02:41:12.900Z,6.27
2017-07-04T02:43:39.430Z,6.00
2017-07-04T02:46:05.988Z,6.53
2017-07-04T02:48:32.528Z,6.00
2017-07-04T02:50:59.069Z,6.10
2017-07-04T02:53:25.670Z,7.20
2017-07-04T02:55:52.209Z,6.27
2017-07-04T02:58:18.749Z,6.73
2017-07-04T03:00:46.078Z,6.80
2017-07-04T03:03:12.613Z,6.10
2017-07-04T03:05:39.166Z,7.23
2017-07-04T03:08:05.735Z,7.80
2017-07-04T03:10:32.296Z,6.80
2017-07-04T03:12:58.844Z,6.90
2017-07-04T03:15:25.700Z,7.23
2017-07-04T03:17:52.245Z,7.10
2017-07-04T03:20:18.783Z,8.43
2017-07-04T03:22:46.076Z,7.07
2017-07-04T03:25:12.618Z,8.07
2017-07-04T03:27:39.174Z,8.23
2017-07-04T03:30:05.652Z,8.93
2017-07-04T03:32:32.172Z,7.87
2017-07-04T03:34:58.755Z,8.60
2017-07-04T03:37:25.288Z,8.10
2017-07-04T03:39:51.861Z,9.00
2017-07-04T03:42:18.393Z,8.07
2017-07-04T03:44:44.963Z,10.27
2017-07-04T03:47:11.539Z,7.90
2017-07-04T03:49:38.100Z,8.47
2017-07-04T03:52:04.640Z,9.00
2017-07-04T03:54:31.182Z,9.00
2017-07-04T03:56:57.703Z,8.83
2017-07-04T03:59:24.266Z,8.00
2017-07-04T04:01:50.803Z,8.57
2017-07-04T04:04:17.352Z,8.20
2017-07-04T04:06:43.912Z,8.60
2017-07-04T04:09:10.784Z,8.20
2017-07-04T04:11:37.362Z,8.03
2017-07-04T04:14:03.912Z,8.03
2017-07-04T04:16:30.464Z,8.10
2017-07-04T04:18:57.035Z,8.10
2017-07-04T04:21:23.586Z,8.33
2017-07-04T04:23:50.856Z,8.47
2017-07-04T04:26:17.385Z,8.00
2017-07-04T04:28:43.948Z,7.97
2017-07-04T04:31:10.480Z,8.80
2017-07-04T04:33:37.057Z,7.63
2017-07-04T04:36:03.582Z,8.60
2017-07-04T04:38:30.144Z,8.50
2017-07-04T04:40:56.781Z,9.40
2017-07-04T04:43:23.346Z,8.27
2017-07-04T04:45:49.895Z,8.47
2017-07-04T04:48:16.401Z,7.83
2017-07-04T04:50:42.936Z,8.67
2017-07-04T04:53:09.469Z,9.10
2017-07-04T04:55:36.065Z,9.03
2017-07-04T04:58:02.635Z,8.53
2017-07-04T05:00:29.188Z,9.40
2017-07-04T05:02:55.726Z,8.97
2017-07-04T05:05:23.035Z,9.90
2017-07-04T05:07:49.546Z,10.67
2017-07-04T05:10:16.817Z,13.47
2017-07-04T05:12:43.384Z,13.40
2017-07-04T05:15:09.904Z,12.07
2017-07-04T05:17:36.473Z,13.40
2017-07-04T05:20:03.016Z,12.40
2017-07-04T05:22:29.992Z,12.77
2017-07-04T05:24:56.542Z,12.00
2017-07-04T05:27:23.160Z,11.43
2017-07-04T05:29:49.723Z,10.30
2017-07-04T05:32:16.300Z,10.73
2017-07-04T05:34:42.845Z,9.80
2017-07-04T05:37:10.148Z,10.77
2017-07-04T05:39:36.478Z,9.33
2017-07-04T05:42:03.024Z,9.30
2017-07-04T05:44:29.548Z,8.60
2017-07-04T05:46:56.112Z,9.43
2017-07-04T05:49:22.751Z,9.13
2017-07-04T05:51:49.735Z,8.90
2017-07-04T05:54:16.282Z,11.67
2017-07-04T05:56:43.584Z,9.00
2017-07-04T05:59:10.139Z,8.63
2017-07-04T06:01:36.716Z,9.57
2017-07-04T06:04:04.260Z,9.37
2017-07-04T06:06:31.580Z,9.00
2017-07-04T06:08:58.148Z,8.77
2017-07-04T06:11:24.885Z,9.40
2017-07-04T06:13:51.189Z,8.90
2017-07-04T06:16:17.727Z,10.23
2017-07-04T06:18:44.250Z,10.60
2017-07-04T06:21:10.772Z,11.70
2017-07-04T06:23:37.741Z,12.00
2017-07-04T06:26:05.016Z,12.93
2017-07-04T06:28:31.558Z,13.60
2017-07-04T06:30:58.125Z,13.10
2017-07-04T06:33:24.705Z,13.80
2017-07-04T06:35:51.311Z,15.70
2017-07-04T06:38:17.836Z,13.23
2017-07-04T06:40:44.393Z,13.27
2017-07-04T06:43:10.709Z,14.20
2017-07-04T06:45:37.317Z,16.03
2017-07-04T06:48:05.839Z,20.17
2017-07-04T06:50:32.152Z,21.03
2017-07-04T06:52:58.696Z,20.83
2017-07-04T06:55:25.403Z,18.00
2017-07-04T06:57:51.966Z,17.40
2017-07-04T07:00:18.525Z,18.27
2017-07-04T07:02:45.041Z,14.83
2017-07-04T07:05:12.971Z,15.23
2017-07-04T07:07:39.285Z,15.53
2017-07-04T07:10:05.588Z,17.87
2017-07-04T07:12:31.904Z,16.60
2017-07-04T07:14:58.441Z,18.27
2017-07-04T07:17:25.457Z,17.03
2017-07-04T07:19:51.795Z,18.50
2017-07-04T07:22:18.125Z,17.63
2017-07-04T07:24:44.671Z,15.83
2017-07-04T07:27:11.252Z,17.90
2017-07-04T07:29:37.790Z,17.33
2017-07-04T07:32:04.341Z,18.47
2017-07-04T07:34:30.886Z,18.60
2017-07-04T07:36:57.412Z,18.40
2017-07-04T07:39:23.985Z,17.83
2017-07-04T07:41:50.552Z,20.97
2017-07-04T07:44:17.186Z,19.53
2017-07-04T07:46:43.491Z,19.03
2017-07-04T07:49:09.961Z,18.37
2017-07-04T07:51:36.521Z,19.90
2017-07-04T07:54:07.057Z,18.80
2017-07-04T07:56:33.364Z,19.67
2017-07-04T07:59:00.622Z,20.63
2017-07-04T08:01:26.967Z,20.33
2017-07-04T08:04:08.341Z,17.83
2017-07-04T08:06:34.785Z,18.93
2017-07-04T08:09:01.104Z,18.73
2017-07-04T08:11:27.436Z,20.40
2017-07-04T08:13:53.743Z,18.57
2017-07-04T08:16:20.072Z,20.07
2017-07-04T08:18:46.401Z,19.70
2017-07-04T08:21:12.764Z,19.00
2017-07-04T08:23:39.108Z,19.90
2017-07-04T08:26:05.480Z,18.40
2017-07-04T08:28:31.800Z,18.57
2017-07-04T08:30:58.151Z,18.10
2017-07-04T08:33:24.460Z,18.10
2017-07-04T08:35:50.797Z,17.30
2017-07-04T08:38:17.100Z,18.23
2017-07-04T08:40:43.418Z,17.97
2017-07-04T08:43:10.480Z,16.30
2017-07-04T08:45:36.801Z,15.87
2017-07-04T08:48:03.880Z,16.43
2017-07-04T08:50:30.202Z,15.30
2017-07-04T08:52:56.515Z,14.70
2017-07-04T08:55:22.837Z,13.00
2017-07-04T08:57:49.143Z,12.73
2017-07-04T09:00:15.641Z,13.83
2017-07-04T09:02:41.977Z,11.90
2017-07-04T09:05:08.298Z,14.13
2017-07-04T09:07:34.617Z,11.37
2017-07-04T09:10:00.920Z,12.20
2017-07-04T09:12:27.267Z,12.47
2017-07-04T09:14:53.581Z,11.60
2017-07-04T09:17:19.892Z,11.90
2017-07-04T09:19:46.248Z,12.00
2017-07-04T09:22:12.593Z,11.67
2017-07-04T09:24:38.917Z,11.73
2017-07-04T09:27:05.252Z,12.63
2017-07-04T09:29:31.573Z,11.63
2017-07-04T09:31:57.920Z,12.57
2017-07-04T09:34:24.219Z,12.53
2017-07-04T09:36:50.519Z,11.90
2017-07-04T09:39:17.060Z,10.67
2017-07-04T09:41:44.113Z,10.83
2017-07-04T09:44:10.451Z,10.87
2017-07-04T09:46:36.740Z,11.57
2017-07-04T09:49:03.092Z,11.77
2017-07-04T09:51:29.405Z,11.70
2017-07-04T09:53:55.710Z,11.57
2017-07-04T09:56:22.037Z,10.00
2017-07-04T09:58:48.348Z,10.43
2017-07-04T10:01:15.540Z,10.40
2017-07-04T10:03:44.708Z,10.10
2017-07-04T10:06:11.028Z,10.80
2017-07-04T10:08:37.331Z,10.53
2017-07-04T10:11:03.658Z,10.00
2017-07-04T10:13:29.978Z,10.37
2017-07-04T10:15:57.056Z,10.13
2017-07-04T10:18:23.413Z,9.27
2017-07-04T10:20:49.733Z,9.70
2017-07-04T10:23:16.167Z,9.20
2017-07-04T10:25:42.498Z,9.90
2017-07-04T10:28:08.797Z,9.20
2017-07-04T10:30:35.121Z,7.77
2017-07-04T10:33:01.423Z,9.80
2017-07-04T10:35:28.489Z,8.53
2017-07-04T10:37:54.813Z,8.67
2017-07-04T10:40:21.133Z,8.50
2017-07-04T10:42:47.476Z,10.03
2017-07-04T10:45:13.888Z,9.80
2017-07-04T10:47:40.267Z,8.70
2017-07-04T10:50:06.557Z,9.00
2017-07-04T10:52:32.876Z,9.70
2017-07-04T10:54:59.937Z,9.60
2017-07-04T10:57:26.277Z,10.20
2017-07-04T10:59:52.625Z,9.47
2017-07-04T11:02:18.942Z,9.23
2017-07-04T11:04:45.240Z,9.93
2017-07-04T11:07:11.553Z,9.30
2017-07-04T11:09:37.864Z,10.47
2017-07-04T11:12:04.165Z,14.00
2017-07-04T11:14:30.457Z,15.63
2017-07-04T11:16:57.500Z,16.80
2017-07-04T11:19:23.804Z,16.50
2017-07-04T11:21:50.116Z,17.40
2017-07-04T11:24:16.472Z,18.20
2017-07-04T11:26:43.534Z,17.47
2017-07-04T11:29:10.392Z,18.13
2017-07-04T11:31:36.732Z,18.67
2017-07-04T11:34:03.225Z,18.47
2017-07-04T11:36:29.542Z,19.80
2017-07-04T11:38:56.093Z,17.77
2017-07-04T11:41:22.388Z,17.63
2017-07-04T11:43:48.695Z,18.87
2017-07-04T11:46:15.014Z,16.83
2017-07-04T11:48:41.330Z,16.63
2017-07-04T11:51:07.636Z,16.57
2017-07-04T11:53:33.980Z,16.50
2017-07-04T11:56:00.296Z,17.17
2017-07-04T11:58:26.600Z,16.33
2017-07-04T12:00:53.675Z,16.03
2017-07-04T12:03:20.644Z,15.53
2017-07-04T12:05:46.951Z,15.50
2017-07-04T12:08:13.951Z,15.70
2017-07-04T12:10:40.994Z,14.60
2017-07-04T12:13:07.332Z,15.37
2017-07-04T12:15:34.404Z,14.63
2017-07-04T12:18:00.708Z,15.10
2017-07-04T12:20:27.752Z,13.77
2017-07-04T12:22:54.095Z,15.27
2017-07-04T12:25:21.128Z,14.40
2017-07-04T12:27:47.436Z,14.63
2017-07-04T12:30:13.746Z,13.93
2017-07-04T12:32:40.040Z,13.80
2017-07-04T12:35:06.332Z,13.73
2017-07-04T12:37:32.641Z,15.87
2017-07-04T12:39:58.950Z,14.93
2017-07-04T12:42:25.275Z,14.03
2017-07-04T12:44:51.590Z,13.87
2017-07-04T12:47:17.892Z,14.13
2017-07-04T12:49:44.203Z,14.00
2017-07-04T12:52:10.521Z,12.43
2017-07-04T12:54:36.836Z,12.20
2017-07-04T12:57:03.153Z,12.27
2017-07-04T12:59:29.468Z,11.40
2017-07-04T13:01:55.779Z,11.40
2017-07-04T13:04:22.862Z,12.17
2017-07-04T13:06:49.165Z,11.50
2017-07-04T13:09:15.569Z,10.17
2017-07-04T13:11:41.885Z,11.10
2017-07-04T13:14:08.204Z,11.77
2017-07-04T13:16:34.521Z,10.37
2017-07-04T13:19:00.824Z,11.13
2017-07-04T13:21:27.121Z,10.57
2017-07-04T13:23:54.181Z,10.30
2017-07-04T13:26:21.244Z,10.80
2017-07-04T13:28:47.593Z,11.37
2017-07-04T13:31:13.911Z,10.90
2017-07-04T13:33:40.204Z,12.07
2017-07-04T13:36:06.513Z,11.73
2017-07-04T13:38:32.852Z,11.00
2017-07-04T13:40:59.181Z,10.60
2017-07-04T13:43:25.495Z,9.93
2017-07-04T13:45:51.813Z,11.33
2017-07-04T13:48:18.121Z,11.17
2017-07-04T13:50:44.439Z,11.80
2017-07-04T13:53:10.748Z,11.93
2017-07-04T13:55:37.807Z,10.70
2017-07-04T13:58:04.881Z,11.30
2017-07-04T14:00:31.212Z,11.20
2017-07-04T14:02:57.527Z,11.13
2017-07-04T14:05:23.833Z,10.20
2017-07-04T14:07:50.873Z,10.80
2017-07-04T14:10:17.204Z,12.40
2017-07-04T14:12:44.265Z,12.10
2017-07-04T14:15:11.300Z,10.87
2017-07-04T14:17:38.468Z,12.37
2017-07-04T14:20:04.761Z,11.67
2017-07-04T14:22:31.081Z,12.30
2017-07-04T14:24:57.453Z,11.43
2017-07-04T14:27:23.789Z,11.83
2017-07-04T14:29:50.129Z,12.70
2017-07-04T14:32:16.431Z,10.70
2017-07-04T14:34:42.981Z,11.37
2017-07-04T14:37:09.492Z,11.77
2017-07-04T14:39:36.021Z,12.80
2017-07-04T14:42:02.569Z,11.50
2017-07-04T14:44:29.100Z,11.57
2017-07-04T14:46:55.683Z,10.93
2017-07-04T14:49:22.241Z,11.30
2017-07-04T14:51:48.767Z,10.60
2017-07-04T14:54:15.385Z,12.17
2017-07-04T14:56:42.014Z,12.10
2017-07-04T14:59:08.524Z,12.40
2017-07-04T15:01:35.001Z,12.23
2017-07-04T15:04:01.876Z,12.70
2017-07-04T15:06:28.421Z,12.40
2017-07-04T15:08:54.972Z,11.10
2017-07-04T15:11:21.549Z,12.53
2017-07-04T15:13:48.059Z,11.10
2017-07-04T15:16:14.609Z,10.10
2017-07-04T15:18:41.956Z,11.20
2017-07-04T15:21:08.514Z,10.87
2017-07-04T15:23:35.129Z,12.33
2017-07-04T15:26:01.651Z,10.90
2017-07-04T15:28:28.225Z,12.07
2017-07-04T15:30:55.632Z,12.40
2017-07-04T15:33:22.237Z,12.57
2017-07-04T15:35:49.287Z,12.10
2017-07-04T15:38:16.584Z,12.37
2017-07-04T15:40:43.120Z,11.00
2017-07-04T15:43:10.382Z,10.97
2017-07-04T15:45:36.928Z,13.27
2017-07-04T15:48:03.243Z,11.93
2017-07-04T15:50:29.810Z,10.87
2017-07-04T15:52:56.370Z,13.07
2017-07-04T15:55:22.915Z,12.93
2017-07-04T15:57:49.537Z,12.37
2017-07-04T16:00:16.221Z,11.87
2017-07-04T16:02:42.930Z,11.90
2017-07-04T16:05:09.510Z,10.83
2017-07-04T16:07:36.057Z,12.60
2017-07-04T16:10:02.620Z,11.70
2017-07-04T16:12:29.385Z,13.57
2017-07-04T16:14:56.697Z,12.03
2017-07-04T16:17:23.257Z,11.53
2017-07-04T16:19:49.779Z,10.83
2017-07-04T16:22:16.419Z,9.33
2017-07-04T16:24:43.812Z,11.00
2017-07-04T16:27:10.408Z,10.67
2017-07-04T16:29:36.921Z,10.50
2017-07-04T16:32:03.652Z,9.83
2017-07-04T16:34:30.197Z,11.50
2017-07-04T16:36:56.729Z,10.60
2017-07-04T16:39:23.354Z,10.00
2017-07-04T16:41:49.905Z,10.50
2017-07-04T16:44:16.490Z,10.50
2017-07-04T16:46:43.757Z,10.00
2017-07-04T16:49:10.334Z,9.93
2017-07-04T16:51:36.891Z,10.43
2017-07-04T16:54:04.781Z,9.77
2017-07-04T16:56:31.300Z,9.90
2017-07-04T16:58:58.665Z,10.53
2017-07-04T17:01:25.231Z,11.47
2017-07-04T17:03:51.748Z,10.37
2017-07-04T17:06:19.245Z,10.50
2017-07-04T17:08:45.785Z,11.17
2017-07-04T17:11:12.289Z,11.70
2017-07-04T17:13:38.846Z,11.03
2017-07-04T17:16:05.376Z,9.73
2017-07-04T17:18:31.918Z,11.40
2017-07-04T17:20:58.485Z,11.80
2017-07-04T17:23:25.053Z,11.30
2017-07-04T17:25:51.772Z,12.20
2017-07-04T17:28:18.369Z,11.43
2017-07-04T17:30:44.957Z,10.00
2017-07-04T17:33:11.495Z,11.73
2017-07-04T17:35:38.033Z,11.40
2017-07-04T17:38:04.585Z,11.50
2017-07-04T17:40:31.109Z,11.50
2017-07-04T17:42:57.661Z,11.37
2017-07-04T17:45:24.892Z,11.13
2017-07-04T17:47:51.449Z,10.23
2017-07-04T17:50:17.972Z,11.60
2017-07-04T17:52:44.492Z,10.87
2017-07-04T17:55:11.757Z,10.33
2017-07-04T17:57:38.262Z,10.60
2017-07-04T18:00:04.934Z,10.87
2017-07-04T18:02:32.245Z,9.53
2017-07-04T18:04:58.808Z,11.00
2017-07-04T18:07:25.336Z,10.23
2017-07-04T18:09:51.902Z,10.80
2017-07-04T18:12:19.172Z,10.63
2017-07-04T18:14:45.710Z,10.57
2017-07-04T18:17:12.277Z,10.87
2017-07-04T18:19:38.802Z,10.50
2017-07-04T18:22:05.344Z,10.97
2017-07-04T18:24:31.905Z,10.30
2017-07-04T18:26:58.467Z,11.47
2017-07-04T18:29:25.048Z,10.30
2017-07-04T18:31:51.603Z,9.63
2017-07-04T18:34:18.148Z,9.60
2017-07-04T18:36:44.673Z,8.90
2017-07-04T18:39:11.295Z,9.70
2017-07-04T18:41:37.816Z,9.23
2017-07-04T18:44:05.094Z,8.70
2017-07-04T18:46:32.661Z,9.30
2017-07-04T18:48:59.232Z,9.00
2017-07-04T18:51:25.752Z,9.33
2017-07-04T18:53:52.322Z,9.67
2017-07-04T18:56:19.024Z,8.60
2017-07-04T18:58:45.572Z,9.47
2017-07-04T19:01:12.841Z,8.23
2017-07-04T19:03:39.436Z,8.77
2017-07-04T19:06:05.877Z,9.20
2017-07-04T19:08:32.400Z,8.67
2017-07-04T19:10:58.950Z,8.23
2017-07-04T19:13:25.473Z,8.27
2017-07-04T19:15:52.125Z,8.17
2017-07-04T19:18:18.645Z,8.80
2017-07-04T19:20:45.267Z,8.40
2017-07-04T19:23:11.788Z,7.97
2017-07-04T19:25:38.373Z,7.93
2017-07-04T19:28:04.980Z,7.97
2017-07-04T19:30:31.519Z,8.37
2017-07-04T19:32:58.040Z,8.23
2017-07-04T19:35:24.592Z,8.80
2017-07-04T19:37:51.844Z,8.90
2017-07-04T19:40:18.535Z,9.23
2017-07-04T19:42:45.173Z,9.07
2017-07-04T19:45:11.830Z,8.90
2017-07-04T19:47:38.485Z,8.00
2017-07-04T19:50:05.076Z,8.50
2017-07-04T19:52:31.543Z,8.90
2017-07-04T19:54:58.200Z,8.80
2017-07-04T19:57:24.749Z,8.73
2017-07-04T19:59:52.069Z,9.60
2017-07-04T20:02:18.621Z,10.23
2017-07-04T20:04:45.148Z,9.33
2017-07-04T20:07:11.669Z,9.03
2017-07-04T20:09:38.260Z,9.93
2017-07-04T20:12:04.811Z,10.33
2017-07-04T20:14:31.309Z,10.23
2017-07-04T20:16:57.900Z,9.80
2017-07-04T20:19:25.190Z,9.80
2017-07-04T20:21:51.748Z,10.33
2017-07-04T20:24:18.277Z,9.83
2017-07-04T20:26:44.933Z,9.70
2017-07-04T20:29:11.524Z,10.30
2017-07-04T20:31:38.085Z,10.60
2017-07-04T20:34:04.817Z,10.40
2017-07-04T20:36:31.389Z,11.00
2017-07-04T20:38:58.141Z,10.47
2017-07-04T20:41:24.757Z,10.57
2017-07-04T20:43:51.333Z,10.00
2017-07-04T20:46:17.899Z,10.27
2017-07-04T20:48:44.445Z,10.50
2017-07-04T20:51:11.007Z,10.60
2017-07-04T20:53:37.557Z,10.70
2017-07-04T20:56:04.094Z,10.93
2017-07-04T20:58:30.621Z,10.00
2017-07-04T21:00:57.200Z,10.00
2017-07-04T21:03:26.309Z,10.43
2017-07-04T21:05:52.886Z,10.53
2017-07-04T21:08:19.409Z,9.60
2017-07-04T21:10:45.965Z,11.10
2017-07-04T21:13:12.520Z,11.00
2017-07-04T21:15:39.176Z,10.90
2017-07-04T21:18:05.813Z,10.90
2017-07-04T21:20:32.368Z,9.97
2017-07-04T21:22:58.936Z,10.80
2017-07-04T21:25:25.545Z,10.50
2017-07-04T21:27:52.100Z,11.30
2017-07-04T21:30:18.669Z,10.80
2017-07-04T21:32:45.232Z,10.57
2017-07-04T21:35:11.793Z,10.70
2017-07-04T21:40:09.964Z,11.40
2017-07-04T21:42:36.528Z,10.97
2017-07-04T21:45:03.072Z,11.60
2017-07-04T21:47:29.690Z,11.30
2017-07-04T21:49:56.993Z,11.50
2017-07-04T21:52:30.430Z,12.10
2017-07-04T21:54:56.729Z,11.20
2017-07-04T21:57:23.046Z,11.60
2017-07-04T21:59:49.377Z,11.07
2017-07-04T22:02:15.753Z,10.97
2017-07-04T22:04:42.092Z,11.10
2017-07-04T22:07:11.853Z,11.00
2017-07-04T22:09:38.174Z,11.60
2017-07-04T22:12:04.507Z,10.73
2017-07-04T22:14:30.824Z,12.43
2017-07-04T22:17:01.419Z,12.53
2017-07-04T22:19:36.109Z,10.77
2017-07-04T22:22:04.028Z,11.50
2017-07-04T22:24:30.349Z,12.07
2017-07-04T22:26:57.639Z,11.97
2017-07-04T22:29:23.953Z,12.07
2017-07-04T22:31:51.155Z,12.37
2017-07-04T22:34:17.486Z,12.10
2017-07-04T22:36:43.845Z,11.93
2017-07-04T22:39:10.896Z,11.97
2017-07-04T22:41:37.233Z,12.30
2017-07-04T22:44:03.541Z,12.70
2017-07-04T22:46:31.329Z,13.40
2017-07-04T22:48:57.643Z,13.00
2017-07-04T22:51:23.948Z,13.80
2017-07-04T22:53:50.388Z,13.50
2017-07-04T22:56:16.770Z,13.90
2017-07-04T22:58:43.085Z,12.87
2017-07-04T23:01:09.408Z,14.40
2017-07-04T23:03:35.737Z,13.00
2017-07-04T23:06:02.068Z,13.67
2017-07-04T23:08:28.382Z,13.27
2017-07-04T23:10:54.736Z,13.77
2017-07-04T23:13:22.527Z,12.70
2017-07-04T23:15:48.947Z,13.17
2017-07-04T23:18:15.327Z,13.60
2017-07-04T23:20:42.461Z,12.73
2017-07-04T23:23:08.808Z,13.60
2017-07-04T23:25:35.144Z,13.40
2017-07-04T23:28:01.485Z,12.70
2017-07-04T23:30:27.861Z,13.53
2017-07-04T23:32:54.821Z,14.17
2017-07-04T23:35:21.295Z,13.20
2017-07-04T23:37:47.629Z,13.50
2017-07-04T23:40:13.972Z,13.27
2017-07-04T23:42:40.282Z,14.43
2017-07-04T23:45:06.604Z,12.70
2017-07-04T23:47:32.955Z,13.07
2017-07-04T23:49:59.395Z,13.43
2017-07-04T23:52:25.757Z,13.33
2017-07-04T23:54:52.097Z,13.73
2017-07-04T23:57:18.410Z,13.10
2017-07-04T23:59:44.817Z,13.07
